sensor_id;sensor_type;location;lat;lon;timestamp;temperature;humidity
58309;DHT22;44117;57.142;24.826;2022-09-09T00:02:24;6.60;99.90
58309;DHT22;44117;57.142;24.826;2022-09-09T00:13:01;6.40;99.90
58309;DHT22;44117;57.142;24.826;2022-09-09T00:15:49;6.40;99.90
58309;DHT22;44117;57.142;24.826;2022-09-09T00:21:14;6.40;99.90
58309;DHT22;44117;57.142;24.826;2022-09-09T00:23:49;6.40;99.90
58309;DHT22;44117;57.142;24.826;2022-09-09T00:26:41;6.40;99.90
58309;DHT22;44117;57.142;24.826;2022-09-09T00:31:54;6.40;99.90
58309;DHT22;44117;57.142;24.826;2022-09-09T00:34:26;6.40;99.90
58309;DHT22;44117;57.142;24.826;2022-09-09T00:36:55;6.40;99.90
58309;DHT22;44117;57.142;24.826;2022-09-09T00:42:26;6.40;99.90
58309;DHT22;44117;57.142;24.826;2022-09-09T00:45:26;6.30;99.90
58309;DHT22;44117;57.142;24.826;2022-09-09T00:48:00;6.30;99.90
58309;DHT22;44117;57.142;24.826;2022-09-09T00:50:53;6.30;99.90
58309;DHT22;44117;57.142;24.826;2022-09-09T00:56:26;6.20;99.90
58309;DHT22;44117;57.142;24.826;2022-09-09T01:01:53;6.20;99.90
58309;DHT22;44117;57.142;24.826;2022-09-09T01:04:34;6.20;99.90
58309;DHT22;44117;57.142;24.826;2022-09-09T01:07:17;6.20;99.90
58309;DHT22;44117;57.142;24.826;2022-09-09T01:09:59;6.20;99.90
58309;DHT22;44117;57.142;24.826;2022-09-09T01:12:42;6.20;99.90
58309;DHT22;44117;57.142;24.826;2022-09-09T01:15:14;6.20;99.90
58309;DHT22;44117;57.142;24.826;2022-09-09T01:18:00;6.20;99.90
58309;DHT22;44117;57.142;24.826;2022-09-09T01:20:37;6.10;99.90
58309;DHT22;44117;57.142;24.826;2022-09-09T01:23:48;6.20;99.90
58309;DHT22;44117;57.142;24.826;2022-09-09T01:26:42;6.20;99.90
58309;DHT22;44117;57.142;24.826;2022-09-09T01:29:14;6.20;99.90
58309;DHT22;44117;57.142;24.826;2022-09-09T01:32:02;6.10;99.90
58309;DHT22;44117;57.142;24.826;2022-09-09T01:34:35;6.10;99.90
58309;DHT22;44117;57.142;24.826;2022-09-09T01:37:10;6.10;99.90
58309;DHT22;44117;57.142;24.826;2022-09-09T01:39:41;6.10;99.90
58309;DHT22;44117;57.142;24.826;2022-09-09T01:42:13;6.10;99.90
58309;DHT22;44117;57.142;24.826;2022-09-09T01:44:41;6.00;99.90
58309;DHT22;44117;57.142;24.826;2022-09-09T01:47:09;5.90;99.90
58309;DHT22;44117;57.142;24.826;2022-09-09T01:49:37;5.80;99.90
58309;DHT22;44117;57.142;24.826;2022-09-09T01:52:04;5.80;99.90
58309;DHT22;44117;57.142;24.826;2022-09-09T01:54:32;5.80;99.90
58309;DHT22;44117;57.142;24.826;2022-09-09T02:00:05;5.70;99.90
58309;DHT22;44117;57.142;24.826;2022-09-09T02:05:26;5.70;99.90
58309;DHT22;44117;57.142;24.826;2022-09-09T02:08:17;5.70;99.90
58309;DHT22;44117;57.142;24.826;2022-09-09T02:11:13;5.80;99.90
58309;DHT22;44117;57.142;24.826;2022-09-09T02:13:44;5.80;99.90
58309;DHT22;44117;57.142;24.826;2022-09-09T02:21:34;5.70;99.90
58309;DHT22;44117;57.142;24.826;2022-09-09T02:24:07;5.60;99.90
58309;DHT22;44117;57.142;24.826;2022-09-09T02:26:41;5.60;99.90
58309;DHT22;44117;57.142;24.826;2022-09-09T02:29:15;5.60;99.90
58309;DHT22;44117;57.142;24.826;2022-09-09T02:31:46;5.50;99.90
58309;DHT22;44117;57.142;24.826;2022-09-09T02:34:17;5.40;99.90
58309;DHT22;44117;57.142;24.826;2022-09-09T02:36:46;5.40;99.90
58309;DHT22;44117;57.142;24.826;2022-09-09T02:39:14;5.50;99.90
58309;DHT22;44117;57.142;24.826;2022-09-09T02:41:42;5.40;99.90
58309;DHT22;44117;57.142;24.826;2022-09-09T02:44:17;5.30;99.90
58309;DHT22;44117;57.142;24.826;2022-09-09T02:46:49;5.30;99.90
58309;DHT22;44117;57.142;24.826;2022-09-09T02:52:08;5.40;99.90
58309;DHT22;44117;57.142;24.826;2022-09-09T02:54:38;5.40;99.90
58309;DHT22;44117;57.142;24.826;2022-09-09T02:57:12;5.40;99.90
58309;DHT22;44117;57.142;24.826;2022-09-09T02:59:44;5.40;99.90
58309;DHT22;44117;57.142;24.826;2022-09-09T03:02:11;5.40;99.90
58309;DHT22;44117;57.142;24.826;2022-09-09T03:04:40;5.50;99.90
58309;DHT22;44117;57.142;24.826;2022-09-09T03:07:11;5.50;99.90
58309;DHT22;44117;57.142;24.826;2022-09-09T03:09:39;5.50;99.90
58309;DHT22;44117;57.142;24.826;2022-09-09T03:12:06;5.50;99.90
58309;DHT22;44117;57.142;24.826;2022-09-09T03:14:34;5.60;99.90
58309;DHT22;44117;57.142;24.826;2022-09-09T03:17:01;5.50;99.90
58309;DHT22;44117;57.142;24.826;2022-09-09T03:19:29;5.50;99.90
58309;DHT22;44117;57.142;24.826;2022-09-09T03:21:57;5.50;99.90
58309;DHT22;44117;57.142;24.826;2022-09-09T03:24:25;5.40;99.90
58309;DHT22;44117;57.142;24.826;2022-09-09T03:26:52;5.40;99.90
58309;DHT22;44117;57.142;24.826;2022-09-09T03:29:20;5.40;99.90
58309;DHT22;44117;57.142;24.826;2022-09-09T03:31:48;5.40;99.90
58309;DHT22;44117;57.142;24.826;2022-09-09T03:34:15;5.40;99.90
58309;DHT22;44117;57.142;24.826;2022-09-09T03:36:43;5.40;99.90
58309;DHT22;44117;57.142;24.826;2022-09-09T03:39:10;5.40;99.90
58309;DHT22;44117;57.142;24.826;2022-09-09T03:41:37;5.50;99.90
58309;DHT22;44117;57.142;24.826;2022-09-09T03:44:05;5.50;99.90
58309;DHT22;44117;57.142;24.826;2022-09-09T03:46:32;5.40;99.90
58309;DHT22;44117;57.142;24.826;2022-09-09T03:49:00;5.50;99.90
58309;DHT22;44117;57.142;24.826;2022-09-09T03:51:29;5.50;99.90
58309;DHT22;44117;57.142;24.826;2022-09-09T03:53:57;5.50;99.90
58309;DHT22;44117;57.142;24.826;2022-09-09T03:56:25;5.40;99.90
58309;DHT22;44117;57.142;24.826;2022-09-09T03:58:52;5.40;99.90
58309;DHT22;44117;57.142;24.826;2022-09-09T04:01:19;5.40;99.90
58309;DHT22;44117;57.142;24.826;2022-09-09T04:03:47;5.40;99.90
58309;DHT22;44117;57.142;24.826;2022-09-09T04:06:14;5.50;99.90
58309;DHT22;44117;57.142;24.826;2022-09-09T04:08:42;5.50;99.90
58309;DHT22;44117;57.142;24.826;2022-09-09T04:11:09;5.60;99.90
58309;DHT22;44117;57.142;24.826;2022-09-09T04:13:37;5.60;99.90
58309;DHT22;44117;57.142;24.826;2022-09-09T04:16:10;5.60;99.90
58309;DHT22;44117;57.142;24.826;2022-09-09T04:18:38;5.50;99.90
58309;DHT22;44117;57.142;24.826;2022-09-09T04:21:06;5.60;99.90
58309;DHT22;44117;57.142;24.826;2022-09-09T04:23:34;5.70;99.90
58309;DHT22;44117;57.142;24.826;2022-09-09T04:26:02;5.80;99.90
58309;DHT22;44117;57.142;24.826;2022-09-09T04:28:33;5.80;99.90
58309;DHT22;44117;57.142;24.826;2022-09-09T04:31:29;5.90;99.90
58309;DHT22;44117;57.142;24.826;2022-09-09T04:33:56;5.90;99.90
58309;DHT22;44117;57.142;24.826;2022-09-09T04:36:23;6.00;99.90
58309;DHT22;44117;57.142;24.826;2022-09-09T04:38:50;6.00;99.90
58309;DHT22;44117;57.142;24.826;2022-09-09T04:41:18;6.10;99.90
58309;DHT22;44117;57.142;24.826;2022-09-09T04:43:45;6.10;99.90
58309;DHT22;44117;57.142;24.826;2022-09-09T04:46:12;6.20;99.90
58309;DHT22;44117;57.142;24.826;2022-09-09T04:48:40;6.30;99.90
58309;DHT22;44117;57.142;24.826;2022-09-09T04:51:09;6.40;99.90
58309;DHT22;44117;57.142;24.826;2022-09-09T04:53:38;6.50;99.90
58309;DHT22;44117;57.142;24.826;2022-09-09T04:56:08;6.60;99.90
58309;DHT22;44117;57.142;24.826;2022-09-09T04:58:40;6.70;99.90
58309;DHT22;44117;57.142;24.826;2022-09-09T05:01:18;6.80;99.90
58309;DHT22;44117;57.142;24.826;2022-09-09T05:03:46;6.90;99.90
58309;DHT22;44117;57.142;24.826;2022-09-09T05:06:16;7.00;99.90
58309;DHT22;44117;57.142;24.826;2022-09-09T05:08:45;7.10;99.90
58309;DHT22;44117;57.142;24.826;2022-09-09T05:11:18;7.10;99.90
58309;DHT22;44117;57.142;24.826;2022-09-09T05:13:46;7.30;99.90
58309;DHT22;44117;57.142;24.826;2022-09-09T05:16:14;7.40;99.90
58309;DHT22;44117;57.142;24.826;2022-09-09T05:18:42;7.50;99.90
58309;DHT22;44117;57.142;24.826;2022-09-09T05:21:15;7.50;99.90
58309;DHT22;44117;57.142;24.826;2022-09-09T05:23:42;7.60;99.90
58309;DHT22;44117;57.142;24.826;2022-09-09T05:26:13;7.70;99.90
58309;DHT22;44117;57.142;24.826;2022-09-09T05:28:43;7.70;99.90
58309;DHT22;44117;57.142;24.826;2022-09-09T05:31:11;7.80;99.90
58309;DHT22;44117;57.142;24.826;2022-09-09T05:33:41;7.90;99.90
58309;DHT22;44117;57.142;24.826;2022-09-09T05:36:12;8.00;99.90
58309;DHT22;44117;57.142;24.826;2022-09-09T05:38:41;8.10;99.90
58309;DHT22;44117;57.142;24.826;2022-09-09T05:41:09;8.10;99.90
58309;DHT22;44117;57.142;24.826;2022-09-09T05:43:38;8.20;99.90
58309;DHT22;44117;57.142;24.826;2022-09-09T05:46:10;8.20;99.90
58309;DHT22;44117;57.142;24.826;2022-09-09T05:48:40;8.30;99.90
58309;DHT22;44117;57.142;24.826;2022-09-09T05:51:13;8.40;99.90
58309;DHT22;44117;57.142;24.826;2022-09-09T05:53:42;8.40;99.90
58309;DHT22;44117;57.142;24.826;2022-09-09T05:56:12;8.50;99.90
58309;DHT22;44117;57.142;24.826;2022-09-09T05:58:44;8.60;99.90
58309;DHT22;44117;57.142;24.826;2022-09-09T06:01:16;8.70;99.90
58309;DHT22;44117;57.142;24.826;2022-09-09T06:03:45;8.80;99.90
58309;DHT22;44117;57.142;24.826;2022-09-09T06:06:18;8.90;99.90
58309;DHT22;44117;57.142;24.826;2022-09-09T06:08:50;9.00;99.90
58309;DHT22;44117;57.142;24.826;2022-09-09T06:11:23;9.10;99.90
58309;DHT22;44117;57.142;24.826;2022-09-09T06:13:50;9.10;99.90
58309;DHT22;44117;57.142;24.826;2022-09-09T06:16:22;9.30;99.90
58309;DHT22;44117;57.142;24.826;2022-09-09T06:18:51;9.40;99.90
58309;DHT22;44117;57.142;24.826;2022-09-09T06:21:21;9.50;99.90
58309;DHT22;44117;57.142;24.826;2022-09-09T06:23:49;9.50;99.90
58309;DHT22;44117;57.142;24.826;2022-09-09T06:26:21;9.60;99.90
58309;DHT22;44117;57.142;24.826;2022-09-09T06:28:50;9.60;99.90
58309;DHT22;44117;57.142;24.826;2022-09-09T06:31:21;9.70;99.90
58309;DHT22;44117;57.142;24.826;2022-09-09T06:33:56;9.80;99.90
58309;DHT22;44117;57.142;24.826;2022-09-09T06:36:26;9.90;99.90
58309;DHT22;44117;57.142;24.826;2022-09-09T06:38:53;9.90;99.60
58309;DHT22;44117;57.142;24.826;2022-09-09T06:41:22;10.00;99.90
58309;DHT22;44117;57.142;24.826;2022-09-09T06:43:50;10.00;99.70
58309;DHT22;44117;57.142;24.826;2022-09-09T06:46:18;10.10;99.70
58309;DHT22;44117;57.142;24.826;2022-09-09T06:48:46;10.20;99.40
58309;DHT22;44117;57.142;24.826;2022-09-09T06:51:19;10.20;99.00
58309;DHT22;44117;57.142;24.826;2022-09-09T06:53:51;10.20;99.20
58309;DHT22;44117;57.142;24.826;2022-09-09T06:56:28;10.30;99.30
58309;DHT22;44117;57.142;24.826;2022-09-09T06:58:58;10.40;98.80
58309;DHT22;44117;57.142;24.826;2022-09-09T07:01:27;10.40;98.70
58309;DHT22;44117;57.142;24.826;2022-09-09T07:03:57;10.40;98.80
58309;DHT22;44117;57.142;24.826;2022-09-09T07:06:33;10.60;98.90
58309;DHT22;44117;57.142;24.826;2022-09-09T07:09:07;10.70;98.30
58309;DHT22;44117;57.142;24.826;2022-09-09T07:11:43;10.80;98.30
58309;DHT22;44117;57.142;24.826;2022-09-09T07:14:11;10.80;97.60
58309;DHT22;44117;57.142;24.826;2022-09-09T07:16:44;10.90;98.20
58309;DHT22;44117;57.142;24.826;2022-09-09T07:19:12;10.90;96.90
58309;DHT22;44117;57.142;24.826;2022-09-09T07:21:42;10.90;97.00
58309;DHT22;44117;57.142;24.826;2022-09-09T07:24:10;10.80;97.30
58309;DHT22;44117;57.142;24.826;2022-09-09T07:26:40;10.90;97.20
58309;DHT22;44117;57.142;24.826;2022-09-09T07:29:08;11.10;97.10
58309;DHT22;44117;57.142;24.826;2022-09-09T07:31:38;11.10;96.60
58309;DHT22;44117;57.142;24.826;2022-09-09T07:34:07;11.20;97.10
58309;DHT22;44117;57.142;24.826;2022-09-09T07:36:36;11.30;96.50
58309;DHT22;44117;57.142;24.826;2022-09-09T07:39:08;11.30;96.20
58309;DHT22;44117;57.142;24.826;2022-09-09T07:41:42;11.30;95.90
58309;DHT22;44117;57.142;24.826;2022-09-09T07:44:15;11.30;96.30
58309;DHT22;44117;57.142;24.826;2022-09-09T07:46:44;11.50;96.40
58309;DHT22;44117;57.142;24.826;2022-09-09T07:49:13;11.60;96.60
58309;DHT22;44117;57.142;24.826;2022-09-09T07:51:43;11.80;96.10
58309;DHT22;44117;57.142;24.826;2022-09-09T07:54:12;11.90;96.00
58309;DHT22;44117;57.142;24.826;2022-09-09T07:56:41;12.10;96.40
58309;DHT22;44117;57.142;24.826;2022-09-09T07:59:09;12.20;95.60
58309;DHT22;44117;57.142;24.826;2022-09-09T08:01:40;12.30;94.60
58309;DHT22;44117;57.142;24.826;2022-09-09T08:04:11;12.20;94.50
58309;DHT22;44117;57.142;24.826;2022-09-09T08:06:50;12.10;93.70
58309;DHT22;44117;57.142;24.826;2022-09-09T08:09:20;12.30;94.10
58309;DHT22;44117;57.142;24.826;2022-09-09T08:11:48;12.40;93.90
58309;DHT22;44117;57.142;24.826;2022-09-09T08:14:15;12.40;93.50
58309;DHT22;44117;57.142;24.826;2022-09-09T08:16:45;12.40;94.20
58309;DHT22;44117;57.142;24.826;2022-09-09T08:19:14;12.40;94.00
58309;DHT22;44117;57.142;24.826;2022-09-09T08:21:43;12.60;93.30
58309;DHT22;44117;57.142;24.826;2022-09-09T08:24:12;12.50;91.90
58309;DHT22;44117;57.142;24.826;2022-09-09T08:26:47;12.20;92.40
58309;DHT22;44117;57.142;24.826;2022-09-09T08:29:16;12.20;92.90
58309;DHT22;44117;57.142;24.826;2022-09-09T08:31:49;12.30;92.20
58309;DHT22;44117;57.142;24.826;2022-09-09T08:34:18;12.40;92.30
58309;DHT22;44117;57.142;24.826;2022-09-09T08:36:48;12.50;92.10
58309;DHT22;44117;57.142;24.826;2022-09-09T08:39:18;12.60;93.10
58309;DHT22;44117;57.142;24.826;2022-09-09T08:42:13;12.90;92.00
58309;DHT22;44117;57.142;24.826;2022-09-09T08:45:31;12.90;91.30
58309;DHT22;44117;57.142;24.826;2022-09-09T08:50:38;13.10;91.00
58309;DHT22;44117;57.142;24.826;2022-09-09T08:53:20;13.20;91.10
58309;DHT22;44117;57.142;24.826;2022-09-09T08:55:54;13.50;91.50
58309;DHT22;44117;57.142;24.826;2022-09-09T08:58:31;13.40;90.00
58309;DHT22;44117;57.142;24.826;2022-09-09T09:06:26;13.30;90.50
58309;DHT22;44117;57.142;24.826;2022-09-09T09:11:51;13.80;91.50
58309;DHT22;44117;57.142;24.826;2022-09-09T09:14:24;13.70;90.80
58309;DHT22;44117;57.142;24.826;2022-09-09T09:17:00;14.00;91.10
58309;DHT22;44117;57.142;24.826;2022-09-09T09:19:29;14.10;91.40
58309;DHT22;44117;57.142;24.826;2022-09-09T09:24:55;13.90;88.20
58309;DHT22;44117;57.142;24.826;2022-09-09T09:27:34;14.10;87.40
58309;DHT22;44117;57.142;24.826;2022-09-09T09:33:02;14.20;86.20
58309;DHT22;44117;57.142;24.826;2022-09-09T09:35:32;14.10;87.20
58309;DHT22;44117;57.142;24.826;2022-09-09T09:38:34;14.30;85.80
58309;DHT22;44117;57.142;24.826;2022-09-09T09:43:59;14.60;86.00
58309;DHT22;44117;57.142;24.826;2022-09-09T09:46:28;14.60;85.70
58309;DHT22;44117;57.142;24.826;2022-09-09T09:49:01;14.70;84.90
58309;DHT22;44117;57.142;24.826;2022-09-09T09:51:31;15.20;83.60
58309;DHT22;44117;57.142;24.826;2022-09-09T09:54:15;15.20;85.40
58309;DHT22;44117;57.142;24.826;2022-09-09T09:56:46;16.00;85.80
58309;DHT22;44117;57.142;24.826;2022-09-09T09:59:22;16.40;83.50
58309;DHT22;44117;57.142;24.826;2022-09-09T10:02:21;16.40;79.60
58309;DHT22;44117;57.142;24.826;2022-09-09T10:05:06;16.10;79.90
58309;DHT22;44117;57.142;24.826;2022-09-09T10:07:39;16.60;77.80
58309;DHT22;44117;57.142;24.826;2022-09-09T10:10:11;16.90;78.40
58309;DHT22;44117;57.142;24.826;2022-09-09T10:13:03;17.00;77.10
58309;DHT22;44117;57.142;24.826;2022-09-09T10:15:46;16.80;76.20
58309;DHT22;44117;57.142;24.826;2022-09-09T10:26:31;17.40;77.00
58309;DHT22;44117;57.142;24.826;2022-09-09T10:32:29;17.70;75.50
58309;DHT22;44117;57.142;24.826;2022-09-09T10:37:21;18.00;75.90
58309;DHT22;44117;57.142;24.826;2022-09-09T10:40:32;18.40;73.20
58309;DHT22;44117;57.142;24.826;2022-09-09T10:43:06;18.40;73.30
58309;DHT22;44117;57.142;24.826;2022-09-09T10:45:48;19.10;71.40
58309;DHT22;44117;57.142;24.826;2022-09-09T10:54:10;19.00;69.60
58309;DHT22;44117;57.142;24.826;2022-09-09T10:56:42;19.90;69.30
58309;DHT22;44117;57.142;24.826;2022-09-09T10:59:17;19.90;67.20
58309;DHT22;44117;57.142;24.826;2022-09-09T11:01:49;19.70;66.80
58309;DHT22;44117;57.142;24.826;2022-09-09T11:04:42;19.50;67.80
58309;DHT22;44117;57.142;24.826;2022-09-09T11:07:13;20.00;67.50
58309;DHT22;44117;57.142;24.826;2022-09-09T11:09:53;20.20;66.10
58309;DHT22;44117;57.142;24.826;2022-09-09T11:12:23;19.80;65.70
58309;DHT22;44117;57.142;24.826;2022-09-09T11:15:20;18.90;67.70
58309;DHT22;44117;57.142;24.826;2022-09-09T11:17:55;18.90;66.80
58309;DHT22;44117;57.142;24.826;2022-09-09T11:20:46;18.90;67.40
58309;DHT22;44117;57.142;24.826;2022-09-09T11:23:27;19.50;67.60
58309;DHT22;44117;57.142;24.826;2022-09-09T11:25:58;19.40;65.20
58309;DHT22;44117;57.142;24.826;2022-09-09T11:42:27;20.60;62.90
58309;DHT22;44117;57.142;24.826;2022-09-09T11:44:54;21.40;62.30
58309;DHT22;44117;57.142;24.826;2022-09-09T11:47:29;21.10;62.20
58309;DHT22;44117;57.142;24.826;2022-09-09T11:50:32;21.20;63.00
58309;DHT22;44117;57.142;24.826;2022-09-09T11:56:10;21.70;61.60
58309;DHT22;44117;57.142;24.826;2022-09-09T11:58:40;21.80;60.40
58309;DHT22;44117;57.142;24.826;2022-09-09T12:01:25;21.90;60.60
58309;DHT22;44117;57.142;24.826;2022-09-09T12:04:15;21.80;59.40
58309;DHT22;44117;57.142;24.826;2022-09-09T12:07:01;21.90;59.70
58309;DHT22;44117;57.142;24.826;2022-09-09T12:09:55;21.90;59.60
58309;DHT22;44117;57.142;24.826;2022-09-09T12:12:35;22.00;59.80
58309;DHT22;44117;57.142;24.826;2022-09-09T12:17:50;24.00;58.20
58309;DHT22;44117;57.142;24.826;2022-09-09T12:20:34;23.90;58.10
58309;DHT22;44117;57.142;24.826;2022-09-09T12:23:25;24.00;56.80
58309;DHT22;44117;57.142;24.826;2022-09-09T12:26:18;24.10;57.00
58309;DHT22;44117;57.142;24.826;2022-09-09T12:32:06;23.50;56.80
58309;DHT22;44117;57.142;24.826;2022-09-09T12:34:48;22.60;56.30
58309;DHT22;44117;57.142;24.826;2022-09-09T12:37:50;22.20;58.50
58309;DHT22;44117;57.142;24.826;2022-09-09T12:40:25;22.40;57.30
58309;DHT22;44117;57.142;24.826;2022-09-09T12:42:54;22.10;58.40
58309;DHT22;44117;57.142;24.826;2022-09-09T12:45:28;22.80;57.60
58309;DHT22;44117;57.142;24.826;2022-09-09T12:50:29;23.00;56.80
58309;DHT22;44117;57.142;24.826;2022-09-09T12:53:12;22.40;55.80
58309;DHT22;44117;57.142;24.826;2022-09-09T12:55:55;22.90;56.50
58309;DHT22;44117;57.142;24.826;2022-09-09T12:58:23;23.40;54.80
58309;DHT22;44117;57.142;24.826;2022-09-09T13:00:54;23.60;55.50
58309;DHT22;44117;57.142;24.826;2022-09-09T13:03:25;23.30;55.40
58309;DHT22;44117;57.142;24.826;2022-09-09T13:05:53;22.60;55.40
58309;DHT22;44117;57.142;24.826;2022-09-09T13:08:27;22.00;56.70
58309;DHT22;44117;57.142;24.826;2022-09-09T13:11:04;22.50;57.10
58309;DHT22;44117;57.142;24.826;2022-09-09T13:13:42;22.70;55.60
58309;DHT22;44117;57.142;24.826;2022-09-09T13:16:33;22.00;55.90
58309;DHT22;44117;57.142;24.826;2022-09-09T13:19:13;21.60;57.80
58309;DHT22;44117;57.142;24.826;2022-09-09T13:21:41;22.60;56.50
58309;DHT22;44117;57.142;24.826;2022-09-09T13:24:29;24.30;54.00
58309;DHT22;44117;57.142;24.826;2022-09-09T13:26:57;23.10;54.20
58309;DHT22;44117;57.142;24.826;2022-09-09T13:29:26;23.00;56.00
58309;DHT22;44117;57.142;24.826;2022-09-09T13:31:54;24.40;58.00
58309;DHT22;44117;57.142;24.826;2022-09-09T13:34:32;24.30;54.70
58309;DHT22;44117;57.142;24.826;2022-09-09T13:37:02;25.00;54.80
58309;DHT22;44117;57.142;24.826;2022-09-09T13:39:30;24.70;53.50
58309;DHT22;44117;57.142;24.826;2022-09-09T13:41:57;25.10;55.40
58309;DHT22;44117;57.142;24.826;2022-09-09T13:44:28;26.00;53.00
58309;DHT22;44117;57.142;24.826;2022-09-09T13:49:42;26.50;50.80
58309;DHT22;44117;57.142;24.826;2022-09-09T13:52:12;25.50;52.10
58309;DHT22;44117;57.142;24.826;2022-09-09T13:54:41;25.90;51.80
58309;DHT22;44117;57.142;24.826;2022-09-09T13:57:16;24.30;53.40
58309;DHT22;44117;57.142;24.826;2022-09-09T13:59:46;24.70;52.40
58309;DHT22;44117;57.142;24.826;2022-09-09T14:02:30;24.70;50.60
58309;DHT22;44117;57.142;24.826;2022-09-09T14:04:58;23.50;52.20
58309;DHT22;44117;57.142;24.826;2022-09-09T14:07:25;23.70;53.90
58309;DHT22;44117;57.142;24.826;2022-09-09T14:09:52;23.70;52.50
58309;DHT22;44117;57.142;24.826;2022-09-09T14:12:20;23.40;53.90
58309;DHT22;44117;57.142;24.826;2022-09-09T14:14:47;22.90;53.60
58309;DHT22;44117;57.142;24.826;2022-09-09T14:17:14;24.00;53.90
58309;DHT22;44117;57.142;24.826;2022-09-09T14:19:41;23.80;52.90
58309;DHT22;44117;57.142;24.826;2022-09-09T14:22:09;24.70;52.30
58309;DHT22;44117;57.142;24.826;2022-09-09T14:24:37;25.20;53.10
58309;DHT22;44117;57.142;24.826;2022-09-09T14:27:04;24.20;52.00
58309;DHT22;44117;57.142;24.826;2022-09-09T14:29:32;24.40;52.80
58309;DHT22;44117;57.142;24.826;2022-09-09T14:31:59;24.00;52.80
58309;DHT22;44117;57.142;24.826;2022-09-09T14:34:27;23.80;52.30
58309;DHT22;44117;57.142;24.826;2022-09-09T14:36:55;23.90;53.20
58309;DHT22;44117;57.142;24.826;2022-09-09T14:39:22;23.80;53.50
58309;DHT22;44117;57.142;24.826;2022-09-09T14:41:50;23.10;54.70
58309;DHT22;44117;57.142;24.826;2022-09-09T14:44:17;23.10;53.00
58309;DHT22;44117;57.142;24.826;2022-09-09T14:46:45;23.80;51.80
58309;DHT22;44117;57.142;24.826;2022-09-09T14:49:13;22.80;52.90
58309;DHT22;44117;57.142;24.826;2022-09-09T14:51:40;22.60;54.50
58309;DHT22;44117;57.142;24.826;2022-09-09T14:54:07;24.00;54.20
58309;DHT22;44117;57.142;24.826;2022-09-09T14:56:35;24.00;54.10
58309;DHT22;44117;57.142;24.826;2022-09-09T14:59:02;24.30;53.10
58309;DHT22;44117;57.142;24.826;2022-09-09T15:01:31;24.80;53.80
58309;DHT22;44117;57.142;24.826;2022-09-09T15:04:01;23.60;51.70
58309;DHT22;44117;57.142;24.826;2022-09-09T15:06:31;23.10;53.00
58309;DHT22;44117;57.142;24.826;2022-09-09T15:09:00;23.20;52.70
58309;DHT22;44117;57.142;24.826;2022-09-09T15:11:29;23.40;52.50
58309;DHT22;44117;57.142;24.826;2022-09-09T15:13:57;23.10;53.90
58309;DHT22;44117;57.142;24.826;2022-09-09T15:16:27;22.60;53.50
58309;DHT22;44117;57.142;24.826;2022-09-09T15:18:56;22.70;53.90
58309;DHT22;44117;57.142;24.826;2022-09-09T15:21:29;23.00;54.10
58309;DHT22;44117;57.142;24.826;2022-09-09T15:23:58;23.10;53.50
58309;DHT22;44117;57.142;24.826;2022-09-09T15:26:26;23.00;53.90
58309;DHT22;44117;57.142;24.826;2022-09-09T15:28:54;22.90;54.00
58309;DHT22;44117;57.142;24.826;2022-09-09T15:31:24;23.40;53.10
58309;DHT22;44117;57.142;24.826;2022-09-09T15:33:57;23.60;53.20
58309;DHT22;44117;57.142;24.826;2022-09-09T15:38:57;23.80;53.50
58309;DHT22;44117;57.142;24.826;2022-09-09T15:41:25;23.60;53.20
58309;DHT22;44117;57.142;24.826;2022-09-09T15:43:54;23.40;53.90
58309;DHT22;44117;57.142;24.826;2022-09-09T15:48:58;22.40;54.70
58309;DHT22;44117;57.142;24.826;2022-09-09T15:51:29;22.70;54.90
58309;DHT22;44117;57.142;24.826;2022-09-09T15:54:10;22.20;54.80
58309;DHT22;44117;57.142;24.826;2022-09-09T15:56:40;22.20;55.50
58309;DHT22;44117;57.142;24.826;2022-09-09T15:59:07;22.10;55.20
58309;DHT22;44117;57.142;24.826;2022-09-09T16:01:35;22.10;55.60
58309;DHT22;44117;57.142;24.826;2022-09-09T16:04:03;20.80;56.90
58309;DHT22;44117;57.142;24.826;2022-09-09T16:06:31;20.20;58.70
58309;DHT22;44117;57.142;24.826;2022-09-09T16:08:59;19.10;60.70
58309;DHT22;44117;57.142;24.826;2022-09-09T16:11:32;18.00;62.50
58309;DHT22;44117;57.142;24.826;2022-09-09T16:14:00;17.10;65.00
58309;DHT22;44117;57.142;24.826;2022-09-09T16:16:29;16.70;66.70
58309;DHT22;44117;57.142;24.826;2022-09-09T16:18:59;16.20;67.60
58309;DHT22;44117;57.142;24.826;2022-09-09T16:21:53;16.10;68.80
58309;DHT22;44117;57.142;24.826;2022-09-09T16:24:19;15.60;69.20
58309;DHT22;44117;57.142;24.826;2022-09-09T16:26:49;15.30;71.00
58309;DHT22;44117;57.142;24.826;2022-09-09T16:29:18;15.20;70.80
58309;DHT22;44117;57.142;24.826;2022-09-09T16:31:46;15.00;72.10
58309;DHT22;44117;57.142;24.826;2022-09-09T16:34:16;14.80;72.30
58309;DHT22;44117;57.142;24.826;2022-09-09T16:36:44;14.70;73.20
58309;DHT22;44117;57.142;24.826;2022-09-09T16:39:14;14.50;73.70
58309;DHT22;44117;57.142;24.826;2022-09-09T16:41:42;14.40;74.00
58309;DHT22;44117;57.142;24.826;2022-09-09T16:44:12;14.30;74.70
58309;DHT22;44117;57.142;24.826;2022-09-09T16:46:42;14.10;75.20
58309;DHT22;44117;57.142;24.826;2022-09-09T16:49:12;14.00;75.70
58309;DHT22;44117;57.142;24.826;2022-09-09T16:51:50;14.00;75.70
58309;DHT22;44117;57.142;24.826;2022-09-09T16:54:20;13.90;76.30
58309;DHT22;44117;57.142;24.826;2022-09-09T16:56:50;13.90;76.60
58309;DHT22;44117;57.142;24.826;2022-09-09T16:59:20;13.70;77.50
58309;DHT22;44117;57.142;24.826;2022-09-09T17:01:49;13.60;77.90
58309;DHT22;44117;57.142;24.826;2022-09-09T17:04:27;13.60;79.10
58309;DHT22;44117;57.142;24.826;2022-09-09T17:06:55;13.50;79.60
58309;DHT22;44117;57.142;24.826;2022-09-09T17:09:25;13.40;80.20
58309;DHT22;44117;57.142;24.826;2022-09-09T17:11:56;13.30;80.20
58309;DHT22;44117;57.142;24.826;2022-09-09T17:14:24;13.20;79.80
58309;DHT22;44117;57.142;24.826;2022-09-09T17:16:51;13.10;80.20
58309;DHT22;44117;57.142;24.826;2022-09-09T17:19:19;13.10;80.40
58309;DHT22;44117;57.142;24.826;2022-09-09T17:21:46;13.00;81.20
58309;DHT22;44117;57.142;24.826;2022-09-09T17:24:36;13.00;81.00
58309;DHT22;44117;57.142;24.826;2022-09-09T17:27:05;12.80;81.60
58309;DHT22;44117;57.142;24.826;2022-09-09T17:29:33;12.80;82.00
58309;DHT22;44117;57.142;24.826;2022-09-09T17:32:03;12.70;82.10
58309;DHT22;44117;57.142;24.826;2022-09-09T17:34:32;12.60;82.70
58309;DHT22;44117;57.142;24.826;2022-09-09T17:37:00;12.50;83.10
58309;DHT22;44117;57.142;24.826;2022-09-09T17:39:27;12.40;83.00
58309;DHT22;44117;57.142;24.826;2022-09-09T17:41:54;12.30;83.30
58309;DHT22;44117;57.142;24.826;2022-09-09T17:44:22;12.20;83.70
58309;DHT22;44117;57.142;24.826;2022-09-09T17:46:49;12.20;84.50